sensor_id;sensor_type;location;lat;lon;timestamp;temperature;humidity
40670;DHT22;26355;45.528;9.234;2023-06-24T00:02:15;29.70;59.90
40670;DHT22;26355;45.528;9.234;2023-06-24T00:04:41;29.70;59.90
40670;DHT22;26355;45.528;9.234;2023-06-24T00:07:07;29.60;59.90
40670;DHT22;26355;45.528;9.234;2023-06-24T00:09:32;29.50;59.80
40670;DHT22;26355;45.528;9.234;2023-06-24T00:11:58;29.50;59.90
40670;DHT22;26355;45.528;9.234;2023-06-24T00:14:25;29.40;59.90
40670;DHT22;26355;45.528;9.234;2023-06-24T00:16:52;29.40;60.00
40670;DHT22;26355;45.528;9.234;2023-06-24T00:19:25;29.40;60.10
40670;DHT22;26355;45.528;9.234;2023-06-24T00:21:52;29.30;60.00
40670;DHT22;26355;45.528;9.234;2023-06-24T00:24:21;29.40;59.60
40670;DHT22;26355;45.528;9.234;2023-06-24T00:26:51;29.40;60.20
40670;DHT22;26355;45.528;9.234;2023-06-24T00:29:17;29.40;60.30
40670;DHT22;26355;45.528;9.234;2023-06-24T00:32:02;29.30;59.90
40670;DHT22;26355;45.528;9.234;2023-06-24T00:34:27;29.40;60.30
40670;DHT22;26355;45.528;9.234;2023-06-24T00:36:53;29.40;60.20
40670;DHT22;26355;45.528;9.234;2023-06-24T00:39:18;29.40;60.10
40670;DHT22;26355;45.528;9.234;2023-06-24T00:41:44;29.40;60.20
40670;DHT22;26355;45.528;9.234;2023-06-24T00:44:10;29.30;60.40
40670;DHT22;26355;45.528;9.234;2023-06-24T00:46:35;29.40;60.50
40670;DHT22;26355;45.528;9.234;2023-06-24T00:49:01;29.30;60.60
40670;DHT22;26355;45.528;9.234;2023-06-24T00:51:28;29.20;60.70
40670;DHT22;26355;45.528;9.234;2023-06-24T00:53:58;29.20;60.70
40670;DHT22;26355;45.528;9.234;2023-06-24T00:56:42;29.20;60.70
40670;DHT22;26355;45.528;9.234;2023-06-24T00:59:10;29.20;60.50
40670;DHT22;26355;45.528;9.234;2023-06-24T01:01:38;29.10;60.70
40670;DHT22;26355;45.528;9.234;2023-06-24T01:04:04;29.10;60.80
40670;DHT22;26355;45.528;9.234;2023-06-24T01:06:30;29.10;60.80
40670;DHT22;26355;45.528;9.234;2023-06-24T01:08:59;29.10;60.60
40670;DHT22;26355;45.528;9.234;2023-06-24T01:11:29;29.10;60.50
40670;DHT22;26355;45.528;9.234;2023-06-24T01:13:55;29.00;60.80
40670;DHT22;26355;45.528;9.234;2023-06-24T01:16:44;28.90;61.00
40670;DHT22;26355;45.528;9.234;2023-06-24T01:30:54;28.50;61.90
40670;DHT22;26355;45.528;9.234;2023-06-24T01:33:29;28.40;62.40
40670;DHT22;26355;45.528;9.234;2023-06-24T01:35:58;28.40;62.70
40670;DHT22;26355;45.528;9.234;2023-06-24T01:38:36;28.40;63.00
40670;DHT22;26355;45.528;9.234;2023-06-24T01:41:04;28.40;63.40
40670;DHT22;26355;45.528;9.234;2023-06-24T01:43:33;28.30;63.40
40670;DHT22;26355;45.528;9.234;2023-06-24T01:45:59;28.30;63.50
40670;DHT22;26355;45.528;9.234;2023-06-24T01:48:28;28.30;64.50
40670;DHT22;26355;45.528;9.234;2023-06-24T01:51:02;28.20;63.90
40670;DHT22;26355;45.528;9.234;2023-06-24T01:53:29;28.20;64.30
40670;DHT22;26355;45.528;9.234;2023-06-24T01:55:59;28.10;64.50
40670;DHT22;26355;45.528;9.234;2023-06-24T01:58:26;28.10;64.80
40670;DHT22;26355;45.528;9.234;2023-06-24T02:00:52;28.10;65.00
40670;DHT22;26355;45.528;9.234;2023-06-24T02:03:19;28.00;64.90
40670;DHT22;26355;45.528;9.234;2023-06-24T02:05:47;28.10;65.20
40670;DHT22;26355;45.528;9.234;2023-06-24T02:08:13;28.00;65.40
40670;DHT22;26355;45.528;9.234;2023-06-24T02:10:40;27.80;66.10
40670;DHT22;26355;45.528;9.234;2023-06-24T02:13:08;27.80;65.70
40670;DHT22;26355;45.528;9.234;2023-06-24T02:15:35;27.70;65.90
40670;DHT22;26355;45.528;9.234;2023-06-24T02:18:02;27.70;66.10
40670;DHT22;26355;45.528;9.234;2023-06-24T02:20:31;27.70;66.40
40670;DHT22;26355;45.528;9.234;2023-06-24T02:22:58;27.70;66.60
40670;DHT22;26355;45.528;9.234;2023-06-24T02:25:25;27.60;66.60
40670;DHT22;26355;45.528;9.234;2023-06-24T02:27:51;27.60;67.20
40670;DHT22;26355;45.528;9.234;2023-06-24T02:30:18;27.50;68.40
40670;DHT22;26355;45.528;9.234;2023-06-24T02:32:44;27.50;67.40
40670;DHT22;26355;45.528;9.234;2023-06-24T02:35:09;27.50;67.80
40670;DHT22;26355;45.528;9.234;2023-06-24T02:37:35;27.40;68.00
40670;DHT22;26355;45.528;9.234;2023-06-24T02:40:01;27.30;68.40
40670;DHT22;26355;45.528;9.234;2023-06-24T02:42:27;27.30;68.60
40670;DHT22;26355;45.528;9.234;2023-06-24T02:44:53;27.20;68.70
40670;DHT22;26355;45.528;9.234;2023-06-24T02:47:19;27.20;68.70
40670;DHT22;26355;45.528;9.234;2023-06-24T02:49:46;27.20;68.90
40670;DHT22;26355;45.528;9.234;2023-06-24T02:52:13;27.10;69.70
40670;DHT22;26355;45.528;9.234;2023-06-24T02:54:40;27.00;69.90
40670;DHT22;26355;45.528;9.234;2023-06-24T02:57:08;26.90;70.10
40670;DHT22;26355;45.528;9.234;2023-06-24T02:59:33;26.80;70.20
40670;DHT22;26355;45.528;9.234;2023-06-24T03:02:00;26.80;70.40
40670;DHT22;26355;45.528;9.234;2023-06-24T03:04:26;26.70;70.50
40670;DHT22;26355;45.528;9.234;2023-06-24T03:06:53;26.60;71.30
40670;DHT22;26355;45.528;9.234;2023-06-24T03:09:19;26.60;72.20
40670;DHT22;26355;45.528;9.234;2023-06-24T03:11:45;26.60;72.10
40670;DHT22;26355;45.528;9.234;2023-06-24T03:14:11;26.60;72.30
40670;DHT22;26355;45.528;9.234;2023-06-24T03:16:37;26.60;72.20
40670;DHT22;26355;45.528;9.234;2023-06-24T03:19:04;26.60;71.90
40670;DHT22;26355;45.528;9.234;2023-06-24T03:21:30;26.60;71.70
40670;DHT22;26355;45.528;9.234;2023-06-24T03:23:56;26.70;71.00
40670;DHT22;26355;45.528;9.234;2023-06-24T03:26:24;26.80;70.40
40670;DHT22;26355;45.528;9.234;2023-06-24T03:28:50;26.80;70.40
40670;DHT22;26355;45.528;9.234;2023-06-24T03:31:16;26.80;70.30
40670;DHT22;26355;45.528;9.234;2023-06-24T03:33:42;26.70;70.70
40670;DHT22;26355;45.528;9.234;2023-06-24T03:36:10;26.70;70.70
40670;DHT22;26355;45.528;9.234;2023-06-24T03:38:36;26.70;70.90
40670;DHT22;26355;45.528;9.234;2023-06-24T03:41:01;26.60;70.80
40670;DHT22;26355;45.528;9.234;2023-06-24T03:43:27;26.60;70.50
40670;DHT22;26355;45.528;9.234;2023-06-24T03:45:52;26.60;70.00
40670;DHT22;26355;45.528;9.234;2023-06-24T03:48:18;26.70;69.90
40670;DHT22;26355;45.528;9.234;2023-06-24T03:50:44;26.80;69.70
40670;DHT22;26355;45.528;9.234;2023-06-24T03:53:09;26.90;69.60
40670;DHT22;26355;45.528;9.234;2023-06-24T03:55:35;26.90;69.60
40670;DHT22;26355;45.528;9.234;2023-06-24T03:58:00;26.90;69.20
40670;DHT22;26355;45.528;9.234;2023-06-24T04:00:26;26.90;69.00
40670;DHT22;26355;45.528;9.234;2023-06-24T04:02:51;26.90;69.00
40670;DHT22;26355;45.528;9.234;2023-06-24T04:05:20;26.90;69.20
40670;DHT22;26355;45.528;9.234;2023-06-24T04:07:47;26.80;69.40
40670;DHT22;26355;45.528;9.234;2023-06-24T04:10:13;26.90;69.50
40670;DHT22;26355;45.528;9.234;2023-06-24T04:12:38;26.90;69.50
40670;DHT22;26355;45.528;9.234;2023-06-24T04:15:04;27.00;69.50
40670;DHT22;26355;45.528;9.234;2023-06-24T04:17:30;27.10;69.60
40670;DHT22;26355;45.528;9.234;2023-06-24T04:19:56;27.10;69.50
40670;DHT22;26355;45.528;9.234;2023-06-24T04:22:23;27.20;69.00
40670;DHT22;26355;45.528;9.234;2023-06-24T04:24:48;27.30;68.80
40670;DHT22;26355;45.528;9.234;2023-06-24T04:27:14;27.30;68.60
40670;DHT22;26355;45.528;9.234;2023-06-24T04:29:39;27.40;68.70
40670;DHT22;26355;45.528;9.234;2023-06-24T04:32:05;27.40;68.80
40670;DHT22;26355;45.528;9.234;2023-06-24T04:34:31;27.40;68.80
40670;DHT22;26355;45.528;9.234;2023-06-24T04:36:57;27.40;68.90
40670;DHT22;26355;45.528;9.234;2023-06-24T04:39:23;27.40;69.10
40670;DHT22;26355;45.528;9.234;2023-06-24T04:41:48;27.40;69.10
40670;DHT22;26355;45.528;9.234;2023-06-24T04:44:14;27.40;69.30
40670;DHT22;26355;45.528;9.234;2023-06-24T04:46:40;27.50;69.40
40670;DHT22;26355;45.528;9.234;2023-06-24T04:49:06;27.50;69.40
40670;DHT22;26355;45.528;9.234;2023-06-24T04:51:32;27.50;69.40
40670;DHT22;26355;45.528;9.234;2023-06-24T04:53:57;27.50;69.40
40670;DHT22;26355;45.528;9.234;2023-06-24T04:56:23;27.50;69.60
40670;DHT22;26355;45.528;9.234;2023-06-24T04:58:50;27.50;69.60
40670;DHT22;26355;45.528;9.234;2023-06-24T05:01:15;27.50;69.40
40670;DHT22;26355;45.528;9.234;2023-06-24T05:03:41;27.50;69.50
40670;DHT22;26355;45.528;9.234;2023-06-24T05:06:06;27.60;69.70
40670;DHT22;26355;45.528;9.234;2023-06-24T05:08:32;27.60;69.90
40670;DHT22;26355;45.528;9.234;2023-06-24T05:10:57;27.60;70.00
40670;DHT22;26355;45.528;9.234;2023-06-24T05:13:23;27.70;69.80
40670;DHT22;26355;45.528;9.234;2023-06-24T05:15:49;27.80;70.20
40670;DHT22;26355;45.528;9.234;2023-06-24T05:18:14;27.70;70.30
40670;DHT22;26355;45.528;9.234;2023-06-24T05:20:40;27.70;70.20
40670;DHT22;26355;45.528;9.234;2023-06-24T05:23:06;27.80;70.20
40670;DHT22;26355;45.528;9.234;2023-06-24T05:25:31;27.80;70.30
40670;DHT22;26355;45.528;9.234;2023-06-24T05:27:57;27.80;70.20
40670;DHT22;26355;45.528;9.234;2023-06-24T05:30:23;27.80;70.40
40670;DHT22;26355;45.528;9.234;2023-06-24T05:32:48;27.80;70.40
40670;DHT22;26355;45.528;9.234;2023-06-24T05:35:14;27.90;70.30
40670;DHT22;26355;45.528;9.234;2023-06-24T05:37:40;27.90;70.50
40670;DHT22;26355;45.528;9.234;2023-06-24T05:40:06;28.00;70.50
40670;DHT22;26355;45.528;9.234;2023-06-24T05:42:32;28.00;70.80
40670;DHT22;26355;45.528;9.234;2023-06-24T05:44:59;28.00;71.20
40670;DHT22;26355;45.528;9.234;2023-06-24T05:47:24;28.00;71.60
40670;DHT22;26355;45.528;9.234;2023-06-24T05:49:50;28.00;73.10
40670;DHT22;26355;45.528;9.234;2023-06-24T05:52:15;27.90;74.10
40670;DHT22;26355;45.528;9.234;2023-06-24T05:54:41;28.00;73.40
40670;DHT22;26355;45.528;9.234;2023-06-24T05:57:06;28.10;72.60
40670;DHT22;26355;45.528;9.234;2023-06-24T05:59:33;28.10;72.90
40670;DHT22;26355;45.528;9.234;2023-06-24T06:01:58;28.20;71.80
40670;DHT22;26355;45.528;9.234;2023-06-24T06:04:29;28.30;70.70
40670;DHT22;26355;45.528;9.234;2023-06-24T06:06:55;28.40;69.90
40670;DHT22;26355;45.528;9.234;2023-06-24T06:09:22;28.40;70.50
40670;DHT22;26355;45.528;9.234;2023-06-24T06:11:47;28.60;70.80
40670;DHT22;26355;45.528;9.234;2023-06-24T06:14:13;28.80;70.90
40670;DHT22;26355;45.528;9.234;2023-06-24T06:16:39;29.00;70.80
40670;DHT22;26355;45.528;9.234;2023-06-24T06:19:04;29.20;70.10
40670;DHT22;26355;45.528;9.234;2023-06-24T06:21:30;29.30;70.30
40670;DHT22;26355;45.528;9.234;2023-06-24T06:23:56;29.40;69.90
40670;DHT22;26355;45.528;9.234;2023-06-24T06:26:21;29.50;69.30
40670;DHT22;26355;45.528;9.234;2023-06-24T06:28:47;29.60;69.60
40670;DHT22;26355;45.528;9.234;2023-06-24T06:31:13;29.80;71.30
40670;DHT22;26355;45.528;9.234;2023-06-24T06:33:39;29.90;71.10
40670;DHT22;26355;45.528;9.234;2023-06-24T06:36:05;30.10;69.50
40670;DHT22;26355;45.528;9.234;2023-06-24T06:38:32;30.30;67.80
40670;DHT22;26355;45.528;9.234;2023-06-24T06:40:58;30.30;66.00
40670;DHT22;26355;45.528;9.234;2023-06-24T06:43:23;30.50;65.90
40670;DHT22;26355;45.528;9.234;2023-06-24T06:45:49;30.50;65.80
40670;DHT22;26355;45.528;9.234;2023-06-24T06:48:14;30.60;65.30
40670;DHT22;26355;45.528;9.234;2023-06-24T06:50:40;30.70;64.50
40670;DHT22;26355;45.528;9.234;2023-06-24T06:53:05;30.80;64.60
40670;DHT22;26355;45.528;9.234;2023-06-24T06:55:31;30.80;64.40
40670;DHT22;26355;45.528;9.234;2023-06-24T06:57:56;30.90;64.20
40670;DHT22;26355;45.528;9.234;2023-06-24T07:00:22;30.90;64.50
40670;DHT22;26355;45.528;9.234;2023-06-24T07:02:48;31.10;65.10
40670;DHT22;26355;45.528;9.234;2023-06-24T07:05:13;31.10;64.70
40670;DHT22;26355;45.528;9.234;2023-06-24T07:07:39;31.10;64.30
40670;DHT22;26355;45.528;9.234;2023-06-24T07:10:05;31.20;65.00
40670;DHT22;26355;45.528;9.234;2023-06-24T07:12:31;31.30;65.20
40670;DHT22;26355;45.528;9.234;2023-06-24T07:14:57;30.90;65.00
40670;DHT22;26355;45.528;9.234;2023-06-24T07:17:22;31.00;65.20
40670;DHT22;26355;45.528;9.234;2023-06-24T07:19:48;31.10;65.40
40670;DHT22;26355;45.528;9.234;2023-06-24T07:22:14;31.10;64.50
40670;DHT22;26355;45.528;9.234;2023-06-24T07:24:40;31.00;64.50
40670;DHT22;26355;45.528;9.234;2023-06-24T07:27:06;31.00;64.20
40670;DHT22;26355;45.528;9.234;2023-06-24T07:29:32;30.90;64.70
40670;DHT22;26355;45.528;9.234;2023-06-24T07:31:57;30.60;64.50
40670;DHT22;26355;45.528;9.234;2023-06-24T07:34:23;30.60;63.40
40670;DHT22;26355;45.528;9.234;2023-06-24T07:36:48;30.60;63.70
40670;DHT22;26355;45.528;9.234;2023-06-24T07:39:16;30.60;63.60
40670;DHT22;26355;45.528;9.234;2023-06-24T07:41:42;30.70;64.10
40670;DHT22;26355;45.528;9.234;2023-06-24T07:44:08;30.70;65.40
40670;DHT22;26355;45.528;9.234;2023-06-24T07:46:34;30.90;65.80
40670;DHT22;26355;45.528;9.234;2023-06-24T07:48:59;30.90;66.00
40670;DHT22;26355;45.528;9.234;2023-06-24T07:51:25;30.90;65.80
40670;DHT22;26355;45.528;9.234;2023-06-24T07:53:51;31.00;66.00
40670;DHT22;26355;45.528;9.234;2023-06-24T07:56:16;31.00;65.90
40670;DHT22;26355;45.528;9.234;2023-06-24T07:58:42;31.10;66.00
40670;DHT22;26355;45.528;9.234;2023-06-24T08:01:07;31.10;66.30
40670;DHT22;26355;45.528;9.234;2023-06-24T08:03:34;30.90;65.90
40670;DHT22;26355;45.528;9.234;2023-06-24T08:06:00;30.90;66.00
40670;DHT22;26355;45.528;9.234;2023-06-24T08:08:25;31.00;66.00
40670;DHT22;26355;45.528;9.234;2023-06-24T08:10:51;30.90;65.60
40670;DHT22;26355;45.528;9.234;2023-06-24T08:13:16;30.90;65.70
40670;DHT22;26355;45.528;9.234;2023-06-24T08:15:42;31.00;65.70
40670;DHT22;26355;45.528;9.234;2023-06-24T08:18:08;31.10;66.20
40670;DHT22;26355;45.528;9.234;2023-06-24T08:20:33;31.20;65.70
40670;DHT22;26355;45.528;9.234;2023-06-24T08:22:59;31.20;65.60
40670;DHT22;26355;45.528;9.234;2023-06-24T08:25:24;31.10;65.40
40670;DHT22;26355;45.528;9.234;2023-06-24T08:27:50;31.10;65.70
40670;DHT22;26355;45.528;9.234;2023-06-24T08:30:16;31.20;66.10
40670;DHT22;26355;45.528;9.234;2023-06-24T08:32:41;31.30;65.80
40670;DHT22;26355;45.528;9.234;2023-06-24T08:35:10;31.20;64.80
40670;DHT22;26355;45.528;9.234;2023-06-24T08:37:36;31.30;65.40
40670;DHT22;26355;45.528;9.234;2023-06-24T08:40:02;31.20;64.90
40670;DHT22;26355;45.528;9.234;2023-06-24T08:42:30;30.90;65.20
40670;DHT22;26355;45.528;9.234;2023-06-24T08:44:55;31.00;64.70
40670;DHT22;26355;45.528;9.234;2023-06-24T08:47:24;31.20;64.30
40670;DHT22;26355;45.528;9.234;2023-06-24T08:49:53;31.10;63.70
40670;DHT22;26355;45.528;9.234;2023-06-24T08:52:21;31.20;63.60
40670;DHT22;26355;45.528;9.234;2023-06-24T08:54:51;31.30;63.50
40670;DHT22;26355;45.528;9.234;2023-06-24T08:57:17;31.40;63.50
40670;DHT22;26355;45.528;9.234;2023-06-24T08:59:44;31.50;63.40
40670;DHT22;26355;45.528;9.234;2023-06-24T09:02:09;31.60;63.40
40670;DHT22;26355;45.528;9.234;2023-06-24T09:04:36;31.60;63.10
40670;DHT22;26355;45.528;9.234;2023-06-24T09:07:02;31.60;62.70
40670;DHT22;26355;45.528;9.234;2023-06-24T09:09:28;31.60;62.70
40670;DHT22;26355;45.528;9.234;2023-06-24T09:12:01;31.70;62.40
40670;DHT22;26355;45.528;9.234;2023-06-24T09:14:29;31.70;62.10
40670;DHT22;26355;45.528;9.234;2023-06-24T09:16:59;31.80;62.30
40670;DHT22;26355;45.528;9.234;2023-06-24T09:19:29;31.90;61.40
40670;DHT22;26355;45.528;9.234;2023-06-24T09:21:55;31.80;61.50
40670;DHT22;26355;45.528;9.234;2023-06-24T09:24:27;31.90;61.90
40670;DHT22;26355;45.528;9.234;2023-06-24T09:26:55;32.00;62.70
40670;DHT22;26355;45.528;9.234;2023-06-24T09:29:29;32.00;62.50
40670;DHT22;26355;45.528;9.234;2023-06-24T09:31:57;32.10;62.70
40670;DHT22;26355;45.528;9.234;2023-06-24T09:34:24;32.20;63.30
40670;DHT22;26355;45.528;9.234;2023-06-24T09:36:56;32.20;63.50
40670;DHT22;26355;45.528;9.234;2023-06-24T09:39:22;32.30;62.00
40670;DHT22;26355;45.528;9.234;2023-06-24T09:41:53;32.30;63.70
40670;DHT22;26355;45.528;9.234;2023-06-24T09:44:19;31.90;64.30
40670;DHT22;26355;45.528;9.234;2023-06-24T09:46:45;31.90;64.50
40670;DHT22;26355;45.528;9.234;2023-06-24T09:49:11;31.80;64.20
40670;DHT22;26355;45.528;9.234;2023-06-24T09:51:38;31.70;64.20
40670;DHT22;26355;45.528;9.234;2023-06-24T09:54:08;31.70;64.20
40670;DHT22;26355;45.528;9.234;2023-06-24T09:56:40;31.80;63.90
40670;DHT22;26355;45.528;9.234;2023-06-24T09:59:08;31.80;64.30
40670;DHT22;26355;45.528;9.234;2023-06-24T10:01:38;32.00;63.90
40670;DHT22;26355;45.528;9.234;2023-06-24T10:04:05;32.00;63.20
40670;DHT22;26355;45.528;9.234;2023-06-24T10:06:34;32.10;63.20
40670;DHT22;26355;45.528;9.234;2023-06-24T10:09:01;32.30;63.90
40670;DHT22;26355;45.528;9.234;2023-06-24T10:11:27;32.40;63.90
40670;DHT22;26355;45.528;9.234;2023-06-24T10:13:53;32.40;63.10
40670;DHT22;26355;45.528;9.234;2023-06-24T10:16:19;32.50;63.40
40670;DHT22;26355;45.528;9.234;2023-06-24T10:18:46;32.60;63.00
40670;DHT22;26355;45.528;9.234;2023-06-24T10:21:11;32.60;62.50
40670;DHT22;26355;45.528;9.234;2023-06-24T10:23:52;32.70;61.70
40670;DHT22;26355;45.528;9.234;2023-06-24T10:26:25;32.70;60.80
40670;DHT22;26355;45.528;9.234;2023-06-24T10:31:55;32.70;61.50
40670;DHT22;26355;45.528;9.234;2023-06-24T10:39:38;32.90;63.30
40670;DHT22;26355;45.528;9.234;2023-06-24T10:44:50;32.80;63.40
40670;DHT22;26355;45.528;9.234;2023-06-24T10:47:17;32.80;64.30
40670;DHT22;26355;45.528;9.234;2023-06-24T10:49:43;32.90;64.10
40670;DHT22;26355;45.528;9.234;2023-06-24T10:52:12;32.80;63.90
40670;DHT22;26355;45.528;9.234;2023-06-24T10:54:38;32.70;64.40
40670;DHT22;26355;45.528;9.234;2023-06-24T10:57:04;32.70;64.60
40670;DHT22;26355;45.528;9.234;2023-06-24T10:59:39;32.80;64.70
40670;DHT22;26355;45.528;9.234;2023-06-24T11:02:06;32.90;64.90
40670;DHT22;26355;45.528;9.234;2023-06-24T11:04:32;33.10;65.00
40670;DHT22;26355;45.528;9.234;2023-06-24T11:07:02;33.10;65.20
40670;DHT22;26355;45.528;9.234;2023-06-24T11:09:28;33.20;64.30
40670;DHT22;26355;45.528;9.234;2023-06-24T11:11:53;33.30;63.90
40670;DHT22;26355;45.528;9.234;2023-06-24T11:14:22;33.20;62.90
40670;DHT22;26355;45.528;9.234;2023-06-24T11:16:47;33.20;63.20
40670;DHT22;26355;45.528;9.234;2023-06-24T11:19:13;33.30;63.40
40670;DHT22;26355;45.528;9.234;2023-06-24T11:21:39;33.30;63.90
40670;DHT22;26355;45.528;9.234;2023-06-24T11:24:05;33.40;65.10
40670;DHT22;26355;45.528;9.234;2023-06-24T11:26:32;33.30;63.40
40670;DHT22;26355;45.528;9.234;2023-06-24T11:28:57;33.40;64.10
40670;DHT22;26355;45.528;9.234;2023-06-24T11:31:26;33.20;65.00
40670;DHT22;26355;45.528;9.234;2023-06-24T11:33:51;33.20;65.00
40670;DHT22;26355;45.528;9.234;2023-06-24T11:36:21;33.10;65.10
40670;DHT22;26355;45.528;9.234;2023-06-24T11:38:47;33.20;65.60
40670;DHT22;26355;45.528;9.234;2023-06-24T11:41:13;33.10;65.20
40670;DHT22;26355;45.528;9.234;2023-06-24T11:43:45;33.20;64.80
40670;DHT22;26355;45.528;9.234;2023-06-24T11:46:24;33.10;63.90
40670;DHT22;26355;45.528;9.234;2023-06-24T11:48:49;32.90;63.70
40670;DHT22;26355;45.528;9.234;2023-06-24T11:51:15;32.90;64.00
40670;DHT22;26355;45.528;9.234;2023-06-24T11:53:42;32.90;63.60
40670;DHT22;26355;45.528;9.234;2023-06-24T11:56:11;33.10;63.80
40670;DHT22;26355;45.528;9.234;2023-06-24T11:58:37;33.30;64.70
40670;DHT22;26355;45.528;9.234;2023-06-24T12:01:03;33.30;65.10
40670;DHT22;26355;45.528;9.234;2023-06-24T12:03:32;33.30;65.50
40670;DHT22;26355;45.528;9.234;2023-06-24T12:05:59;33.40;65.60
40670;DHT22;26355;45.528;9.234;2023-06-24T12:08:24;33.50;65.70
40670;DHT22;26355;45.528;9.234;2023-06-24T12:10:52;33.60;64.50
40670;DHT22;26355;45.528;9.234;2023-06-24T12:13:18;33.80;63.60
40670;DHT22;26355;45.528;9.234;2023-06-24T12:15:43;33.90;63.40
40670;DHT22;26355;45.528;9.234;2023-06-24T12:18:09;34.00;64.10
40670;DHT22;26355;45.528;9.234;2023-06-24T12:20:35;34.10;63.80
40670;DHT22;26355;45.528;9.234;2023-06-24T12:23:02;34.20;63.60
40670;DHT22;26355;45.528;9.234;2023-06-24T12:25:29;34.30;63.60
40670;DHT22;26355;45.528;9.234;2023-06-24T12:27:54;34.30;63.10
40670;DHT22;26355;45.528;9.234;2023-06-24T12:30:20;34.40;63.60
40670;DHT22;26355;45.528;9.234;2023-06-24T12:32:49;34.40;63.80
40670;DHT22;26355;45.528;9.234;2023-06-24T12:35:15;34.30;63.50
40670;DHT22;26355;45.528;9.234;2023-06-24T12:37:40;34.10;63.80
40670;DHT22;26355;45.528;9.234;2023-06-24T12:40:06;34.10;64.20
40670;DHT22;26355;45.528;9.234;2023-06-24T12:42:32;34.10;63.40
40670;DHT22;26355;45.528;9.234;2023-06-24T12:44:59;34.00;63.60
40670;DHT22;26355;45.528;9.234;2023-06-24T12:47:24;34.10;63.90
40670;DHT22;26355;45.528;9.234;2023-06-24T12:49:50;34.20;64.40
40670;DHT22;26355;45.528;9.234;2023-06-24T12:52:16;34.30;64.10
40670;DHT22;26355;45.528;9.234;2023-06-24T12:54:42;34.30;63.70
40670;DHT22;26355;45.528;9.234;2023-06-24T12:57:08;34.40;63.60
40670;DHT22;26355;45.528;9.234;2023-06-24T12:59:33;34.30;63.80
40670;DHT22;26355;45.528;9.234;2023-06-24T13:01:59;34.30;63.70
40670;DHT22;26355;45.528;9.234;2023-06-24T13:04:25;34.30;63.40
40670;DHT22;26355;45.528;9.234;2023-06-24T13:06:52;34.10;63.30
40670;DHT22;26355;45.528;9.234;2023-06-24T13:09:18;33.80;64.00
40670;DHT22;26355;45.528;9.234;2023-06-24T13:11:44;33.80;64.00
40670;DHT22;26355;45.528;9.234;2023-06-24T13:14:09;33.80;63.90
40670;DHT22;26355;45.528;9.234;2023-06-24T13:16:36;33.90;64.30
40670;DHT22;26355;45.528;9.234;2023-06-24T13:19:02;33.90;64.90
40670;DHT22;26355;45.528;9.234;2023-06-24T13:21:27;34.00;65.30
40670;DHT22;26355;45.528;9.234;2023-06-24T13:23:53;34.00;65.30
40670;DHT22;26355;45.528;9.234;2023-06-24T13:26:18;34.00;65.20
40670;DHT22;26355;45.528;9.234;2023-06-24T13:28:44;34.00;65.30
40670;DHT22;26355;45.528;9.234;2023-06-24T13:31:10;34.10;65.50
40670;DHT22;26355;45.528;9.234;2023-06-24T13:33:35;34.10;65.20
40670;DHT22;26355;45.528;9.234;2023-06-24T13:36:01;34.20;64.90
40670;DHT22;26355;45.528;9.234;2023-06-24T13:38:28;34.20;64.30
40670;DHT22;26355;45.528;9.234;2023-06-24T13:40:53;34.00;64.20
40670;DHT22;26355;45.528;9.234;2023-06-24T13:43:19;34.00;64.30
40670;DHT22;26355;45.528;9.234;2023-06-24T13:45:45;34.00;64.80
40670;DHT22;26355;45.528;9.234;2023-06-24T13:48:10;34.20;65.10
40670;DHT22;26355;45.528;9.234;2023-06-24T13:50:36;34.20;64.90
40670;DHT22;26355;45.528;9.234;2023-06-24T13:53:02;34.20;65.20
40670;DHT22;26355;45.528;9.234;2023-06-24T13:55:27;34.30;65.20
40670;DHT22;26355;45.528;9.234;2023-06-24T13:57:53;34.40;64.80
40670;DHT22;26355;45.528;9.234;2023-06-24T14:00:19;34.50;64.70
40670;DHT22;26355;45.528;9.234;2023-06-24T14:02:45;34.50;64.40
40670;DHT22;26355;45.528;9.234;2023-06-24T14:05:11;34.40;64.60
40670;DHT22;26355;45.528;9.234;2023-06-24T14:07:36;34.40;64.90
40670;DHT22;26355;45.528;9.234;2023-06-24T14:10:02;34.40;64.90
40670;DHT22;26355;45.528;9.234;2023-06-24T14:12:28;34.40;64.60
40670;DHT22;26355;45.528;9.234;2023-06-24T14:14:54;34.50;64.50
40670;DHT22;26355;45.528;9.234;2023-06-24T14:17:19;34.40;64.00
40670;DHT22;26355;45.528;9.234;2023-06-24T14:19:46;34.20;64.00
40670;DHT22;26355;45.528;9.234;2023-06-24T14:22:12;34.20;64.30
40670;DHT22;26355;45.528;9.234;2023-06-24T14:24:37;34.20;63.90
40670;DHT22;26355;45.528;9.234;2023-06-24T14:27:05;34.20;64.60
40670;DHT22;26355;45.528;9.234;2023-06-24T14:29:31;34.20;64.40
40670;DHT22;26355;45.528;9.234;2023-06-24T14:31:56;34.30;64.40
40670;DHT22;26355;45.528;9.234;2023-06-24T14:34:22;34.30;64.30
40670;DHT22;26355;45.528;9.234;2023-06-24T14:36:48;34.30;64.70
40670;DHT22;26355;45.528;9.234;2023-06-24T14:39:15;34.40;64.70
40670;DHT22;26355;45.528;9.234;2023-06-24T14:41:44;34.40;64.70
40670;DHT22;26355;45.528;9.234;2023-06-24T14:44:10;34.50;64.10
40670;DHT22;26355;45.528;9.234;2023-06-24T14:46:36;34.40;63.80
40670;DHT22;26355;45.528;9.234;2023-06-24T14:49:01;34.10;62.80
40670;DHT22;26355;45.528;9.234;2023-06-24T14:51:27;34.00;62.70
40670;DHT22;26355;45.528;9.234;2023-06-24T14:53:53;34.00;63.10
40670;DHT22;26355;45.528;9.234;2023-06-24T14:56:19;34.00;62.70
40670;DHT22;26355;45.528;9.234;2023-06-24T14:58:44;34.00;62.60
40670;DHT22;26355;45.528;9.234;2023-06-24T15:01:10;34.00;62.40
40670;DHT22;26355;45.528;9.234;2023-06-24T15:03:35;34.00;63.00
40670;DHT22;26355;45.528;9.234;2023-06-24T15:06:01;34.10;63.50
40670;DHT22;26355;45.528;9.234;2023-06-24T15:08:26;34.00;63.20
40670;DHT22;26355;45.528;9.234;2023-06-24T15:10:52;34.00;63.80
40670;DHT22;26355;45.528;9.234;2023-06-24T15:13:18;34.00;63.80
40670;DHT22;26355;45.528;9.234;2023-06-24T15:15:44;33.90;63.70
40670;DHT22;26355;45.528;9.234;2023-06-24T15:18:10;33.80;64.20
40670;DHT22;26355;45.528;9.234;2023-06-24T15:20:36;33.60;64.80
40670;DHT22;26355;45.528;9.234;2023-06-24T15:23:01;33.30;65.10
40670;DHT22;26355;45.528;9.234;2023-06-24T15:25:27;33.00;65.50
40670;DHT22;26355;45.528;9.234;2023-06-24T15:27:53;33.20;65.70
40670;DHT22;26355;45.528;9.234;2023-06-24T15:30:19;33.20;66.00
40670;DHT22;26355;45.528;9.234;2023-06-24T15:32:44;33.30;65.90
40670;DHT22;26355;45.528;9.234;2023-06-24T15:35:11;33.30;65.70
40670;DHT22;26355;45.528;9.234;2023-06-24T15:37:37;33.00;65.60
40670;DHT22;26355;45.528;9.234;2023-06-24T15:40:03;33.00;65.90
40670;DHT22;26355;45.528;9.234;2023-06-24T15:42:28;33.10;66.80
40670;DHT22;26355;45.528;9.234;2023-06-24T15:44:54;33.10;66.30
40670;DHT22;26355;45.528;9.234;2023-06-24T15:47:19;33.20;66.50
40670;DHT22;26355;45.528;9.234;2023-06-24T15:49:45;33.30;66.50